createdAt,value
2022-09-15T00:02:45.329Z,19.73
2022-09-15T00:05:48.178Z,19.75
2022-09-15T00:08:50.956Z,19.73
2022-09-15T00:11:56.162Z,19.69
2022-09-15T00:14:58.757Z,19.68
2022-09-15T00:18:02.212Z,19.83
2022-09-15T00:21:06.194Z,19.78
2022-09-15T00:24:09.300Z,19.68
2022-09-15T00:27:11.951Z,19.57
2022-09-15T00:30:14.677Z,19.37
2022-09-15T00:33:17.684Z,19.19
2022-09-15T00:36:21.179Z,19.07
2022-09-15T00:39:23.855Z,19.00
2022-09-15T00:42:26.504Z,18.94
2022-09-15T00:45:29.203Z,18.93
2022-09-15T00:48:32.547Z,18.97
2022-09-15T00:51:38.490Z,18.99
2022-09-15T00:54:43.949Z,19.00
2022-09-15T00:57:49.738Z,18.92
2022-09-15T01:00:55.078Z,18.89
2022-09-15T01:03:59.101Z,18.86
2022-09-15T01:07:03.791Z,18.79
2022-09-15T01:10:08.332Z,18.76
2022-09-15T01:13:12.224Z,18.80
2022-09-15T01:19:59.851Z,18.75
2022-09-15T01:23:15.515Z,18.66
2022-09-15T01:26:37.452Z,18.71
2022-09-15T01:29:52.533Z,18.69
2022-09-15T01:33:12.098Z,18.69
2022-09-15T01:36:18.170Z,18.64
2022-09-15T01:39:23.738Z,18.61
2022-09-15T01:42:27.934Z,18.55
2022-09-15T01:45:32.835Z,18.55
2022-09-15T01:48:36.194Z,18.56
2022-09-15T01:51:39.192Z,18.47
2022-09-15T01:54:45.285Z,18.41
2022-09-15T01:57:49.125Z,18.40
2022-09-15T02:00:57.082Z,18.54
2022-09-15T02:04:05.244Z,18.66
2022-09-15T02:07:12.807Z,18.72
2022-09-15T02:10:19.665Z,18.75
2022-09-15T02:13:27.423Z,18.79
2022-09-15T02:16:33.951Z,18.79
2022-09-15T02:19:40.503Z,18.79
2022-09-15T02:22:47.266Z,18.85
2022-09-15T02:25:54.919Z,18.80
2022-09-15T02:29:00.739Z,18.76
2022-09-15T02:32:07.422Z,18.72
2022-09-15T02:35:11.159Z,18.74
2022-09-15T02:38:14.161Z,18.80
2022-09-15T02:41:16.752Z,18.86
2022-09-15T02:44:21.285Z,18.71
2022-09-15T02:47:25.280Z,17.75
2022-09-15T02:50:27.990Z,16.65
2022-09-15T02:53:31.213Z,16.06
2022-09-15T02:56:33.920Z,16.82
2022-09-15T02:59:51.416Z,17.30
2022-09-15T03:02:54.372Z,17.54
2022-09-15T03:06:15.259Z,17.71
2022-09-15T03:09:18.909Z,17.83
2022-09-15T03:12:21.412Z,17.92
2022-09-15T03:15:25.170Z,17.94
2022-09-15T03:18:27.730Z,18.00
2022-09-15T03:21:30.826Z,17.94
2022-09-15T03:24:33.539Z,17.92
2022-09-15T03:27:36.282Z,17.86
2022-09-15T03:30:38.960Z,17.82
2022-09-15T03:33:41.744Z,17.82
2022-09-15T03:36:44.304Z,17.86
2022-09-15T03:39:48.084Z,17.88
2022-09-15T03:42:50.878Z,17.93
2022-09-15T03:45:53.682Z,17.96
2022-09-15T03:48:56.954Z,17.92
2022-09-15T03:51:59.668Z,17.88
2022-09-15T03:55:02.347Z,17.88
2022-09-15T03:58:06.803Z,17.79
2022-09-15T04:01:09.559Z,17.73
2022-09-15T04:04:12.803Z,17.69
2022-09-15T04:07:15.346Z,17.72
2022-09-15T04:10:21.192Z,17.73
2022-09-15T04:13:28.442Z,17.73
2022-09-15T04:16:31.680Z,17.68
2022-09-15T04:19:34.635Z,17.60
2022-09-15T04:22:37.196Z,17.58
2022-09-15T04:25:39.908Z,17.52
2022-09-15T04:28:43.500Z,17.55
2022-09-15T04:31:46.542Z,17.56
2022-09-15T04:34:49.124Z,17.52
2022-09-15T04:37:54.026Z,17.58
2022-09-15T04:40:56.967Z,17.54
2022-09-15T04:43:59.985Z,17.60
2022-09-15T04:47:02.748Z,17.75
2022-09-15T04:50:06.312Z,17.72
2022-09-15T04:53:09.207Z,17.15
2022-09-15T04:56:13.269Z,17.58
2022-09-15T04:59:16.612Z,17.82
2022-09-15T05:02:19.260Z,17.64
2022-09-15T05:05:22.550Z,17.61
2022-09-15T05:08:25.313Z,17.86
2022-09-15T05:11:28.000Z,17.78
2022-09-15T05:14:31.258Z,17.94
2022-09-15T05:17:34.158Z,17.93
2022-09-15T05:20:36.983Z,18.04
2022-09-15T05:23:39.649Z,17.94
2022-09-15T05:26:42.464Z,18.24
2022-09-15T05:29:46.521Z,18.41
2022-09-15T05:32:49.150Z,18.62
2022-09-15T05:35:52.695Z,18.68
2022-09-15T05:38:58.942Z,18.51
2022-09-15T05:42:01.753Z,18.75
2022-09-15T05:45:04.841Z,18.55
2022-09-15T05:48:10.201Z,18.43
2022-09-15T05:51:13.697Z,18.61
2022-09-15T05:54:16.397Z,18.74
2022-09-15T05:57:18.985Z,18.82
2022-09-15T06:00:22.265Z,18.74
2022-09-15T06:03:30.014Z,18.01
2022-09-15T06:06:33.583Z,18.38
2022-09-15T06:09:36.354Z,18.41
2022-09-15T06:12:39.060Z,18.41
2022-09-15T06:15:41.977Z,18.62
2022-09-15T06:18:45.654Z,18.56
2022-09-15T06:21:48.609Z,18.61
2022-09-15T06:24:51.687Z,18.52
2022-09-15T06:27:54.352Z,18.66
2022-09-15T06:30:57.345Z,18.96
2022-09-15T06:34:09.269Z,19.04
2022-09-15T06:37:11.974Z,19.37
2022-09-15T06:40:14.972Z,19.78
2022-09-15T06:43:17.552Z,19.68
2022-09-15T06:46:21.216Z,20.07
2022-09-15T06:49:25.457Z,19.33
2022-09-15T06:52:28.027Z,18.45
2022-09-15T06:55:30.598Z,18.83
2022-09-15T06:58:34.530Z,19.51
2022-09-15T07:01:37.622Z,19.66
2022-09-15T07:04:40.386Z,19.89
2022-09-15T07:07:43.137Z,19.57
2022-09-15T07:10:50.447Z,18.71
2022-09-15T07:13:53.044Z,18.14
2022-09-15T07:16:56.044Z,18.86
2022-09-15T07:19:59.947Z,19.15
2022-09-15T07:23:03.170Z,19.57
2022-09-15T07:26:09.913Z,19.64
2022-09-15T07:29:13.364Z,18.94
2022-09-15T07:32:16.165Z,18.31
2022-09-15T07:35:21.153Z,18.80
2022-09-15T07:38:23.822Z,19.57
2022-09-15T07:41:27.306Z,19.86
2022-09-15T07:44:29.859Z,19.03
2022-09-15T07:47:32.501Z,18.56
2022-09-15T07:50:35.109Z,18.90
2022-09-15T07:53:37.682Z,19.65
2022-09-15T07:56:41.167Z,18.96
2022-09-15T07:59:43.928Z,18.55
2022-09-15T08:02:46.785Z,18.31
2022-09-15T08:05:49.488Z,18.13
2022-09-15T08:08:55.234Z,18.71
2022-09-15T08:12:02.380Z,18.85
2022-09-15T08:15:05.444Z,18.38
2022-09-15T08:18:08.217Z,18.10
2022-09-15T08:21:12.043Z,17.96
2022-09-15T08:24:14.919Z,17.93
2022-09-15T08:27:17.612Z,17.79
2022-09-15T08:30:21.432Z,18.00
2022-09-15T08:33:24.089Z,19.13
2022-09-15T08:36:27.219Z,19.34
2022-09-15T08:39:29.806Z,18.96
2022-09-15T08:42:33.123Z,18.76
2022-09-15T08:45:42.035Z,18.64
2022-09-15T08:48:46.982Z,18.58
2022-09-15T08:51:50.617Z,18.47
2022-09-15T08:54:55.119Z,18.62
2022-09-15T08:57:57.749Z,18.64
2022-09-15T09:01:02.970Z,18.48
2022-09-15T09:04:17.952Z,18.31
2022-09-15T09:07:27.654Z,18.44
2022-09-15T09:10:35.812Z,18.51
2022-09-15T09:13:41.215Z,18.50
2022-09-15T09:16:51.017Z,18.62
2022-09-15T09:20:02.892Z,18.58
2022-09-15T09:23:10.462Z,18.59
2022-09-15T09:26:13.794Z,18.66
2022-09-15T09:29:17.972Z,18.79
2022-09-15T09:32:23.942Z,19.09
2022-09-15T09:35:31.799Z,19.50
2022-09-15T09:38:36.693Z,20.12
2022-09-15T09:41:41.198Z,20.17
2022-09-15T09:44:44.406Z,20.56
2022-09-15T09:47:47.181Z,20.78
2022-09-15T09:50:50.420Z,21.20
2022-09-15T09:53:53.785Z,21.16
2022-09-15T09:56:57.455Z,21.03
2022-09-15T10:00:00.087Z,21.00
2022-09-15T10:03:10.770Z,20.70
2022-09-15T10:06:14.255Z,20.81
2022-09-15T10:09:17.804Z,20.98
2022-09-15T10:12:25.397Z,21.16
2022-09-15T10:15:29.578Z,21.19
2022-09-15T10:18:33.401Z,21.10
2022-09-15T10:21:39.197Z,21.23
2022-09-15T10:24:42.187Z,21.16
2022-09-15T10:27:44.902Z,21.11
2022-09-15T10:31:01.417Z,20.85
2022-09-15T10:34:23.719Z,20.59
2022-09-15T10:37:29.525Z,20.61
2022-09-15T10:40:34.302Z,20.79
2022-09-15T10:43:43.103Z,20.82
2022-09-15T10:46:52.939Z,20.93
2022-09-15T10:49:59.910Z,20.90
2022-09-15T10:53:09.845Z,21.26
2022-09-15T10:56:20.892Z,21.46
2022-09-15T10:59:34.339Z,21.29
2022-09-15T11:02:50.563Z,21.43
2022-09-15T11:06:01.130Z,21.06
2022-09-15T11:09:13.604Z,20.81
2022-09-15T11:12:27.060Z,20.74
2022-09-15T11:15:42.301Z,20.45
2022-09-15T11:19:02.109Z,20.09
2022-09-15T11:22:08.454Z,20.20
2022-09-15T11:25:15.039Z,20.20
2022-09-15T11:28:20.179Z,20.17
2022-09-15T11:31:26.325Z,20.09
2022-09-15T11:34:31.990Z,20.17
2022-09-15T11:37:38.493Z,20.28
2022-09-15T11:40:46.601Z,20.45
2022-09-15T11:43:55.179Z,20.14
2022-09-15T11:47:09.722Z,20.19
2022-09-15T11:50:15.394Z,20.28
2022-09-15T11:53:21.912Z,20.55
2022-09-15T11:56:29.063Z,20.99
2022-09-15T11:59:39.558Z,21.30
2022-09-15T12:02:43.923Z,20.98
2022-09-15T12:05:49.910Z,20.98
2022-09-15T12:08:56.596Z,20.90
2022-09-15T12:12:01.731Z,20.82
2022-09-15T12:15:05.444Z,20.81
2022-09-15T12:18:34.563Z,20.79
2022-09-15T12:21:39.374Z,21.06
2022-09-15T12:24:45.561Z,21.02
2022-09-15T12:28:02.544Z,21.31
2022-09-15T12:31:12.821Z,21.21
2022-09-15T12:34:33.193Z,21.20
2022-09-15T12:37:39.471Z,21.31
2022-09-15T12:40:42.464Z,21.33
2022-09-15T12:43:51.495Z,21.48
2022-09-15T12:46:55.600Z,21.47
2022-09-15T12:50:01.917Z,21.41
2022-09-15T12:53:19.205Z,21.38
2022-09-15T12:56:24.091Z,20.92
2022-09-15T12:59:28.429Z,20.88
2022-09-15T13:02:42.912Z,20.88
2022-09-15T13:06:06.493Z,20.72
2022-09-15T13:09:24.460Z,20.40
2022-09-15T13:12:31.587Z,20.48
2022-09-15T13:15:36.135Z,20.48
2022-09-15T13:18:40.779Z,20.79
2022-09-15T13:21:45.999Z,20.62
2022-09-15T13:24:55.334Z,20.83
2022-09-15T13:28:01.527Z,21.27
2022-09-15T13:31:10.119Z,21.46
2022-09-15T13:38:21.757Z,21.41
2022-09-15T13:41:32.303Z,21.23
2022-09-15T13:45:01.794Z,20.88
2022-09-15T13:48:20.851Z,20.70
2022-09-15T13:51:24.928Z,20.71
2022-09-15T13:54:27.494Z,20.85
2022-09-15T14:01:00.461Z,21.10
2022-09-15T14:04:06.324Z,21.13
2022-09-15T14:07:20.973Z,21.19
2022-09-15T14:10:25.302Z,20.86
2022-09-15T14:13:29.176Z,20.51
2022-09-15T14:16:33.743Z,20.34
2022-09-15T14:19:37.686Z,20.26
2022-09-15T14:22:44.608Z,20.40
2022-09-15T14:25:47.306Z,20.19
2022-09-15T14:28:51.177Z,20.17
2022-09-15T14:31:59.376Z,20.17
2022-09-15T14:35:06.005Z,20.07
2022-09-15T14:38:19.499Z,19.96
2022-09-15T14:41:22.206Z,19.90
2022-09-15T14:48:00.702Z,19.73
2022-09-15T14:51:05.266Z,19.75
2022-09-15T14:54:16.003Z,20.12
2022-09-15T14:57:20.330Z,20.31
2022-09-15T15:00:26.517Z,20.17
2022-09-15T15:03:33.871Z,19.89
2022-09-15T15:06:39.226Z,19.64
2022-09-15T15:09:44.092Z,19.80
2022-09-15T15:12:49.738Z,19.89
2022-09-15T15:15:52.576Z,20.07
2022-09-15T15:18:56.532Z,20.31
2022-09-15T15:22:07.096Z,20.55
2022-09-15T15:25:22.052Z,20.86
2022-09-15T15:28:31.829Z,20.90
2022-09-15T15:31:39.314Z,20.82
2022-09-15T15:34:48.690Z,20.72
2022-09-15T15:38:00.728Z,20.47
2022-09-15T15:41:04.375Z,20.26
2022-09-15T15:44:25.141Z,20.12
2022-09-15T15:47:28.912Z,20.12
2022-09-15T15:50:32.147Z,20.28
2022-09-15T15:53:34.992Z,20.64
2022-09-15T15:56:38.128Z,20.68
2022-09-15T15:59:41.055Z,20.65
2022-09-15T16:02:44.004Z,20.45
2022-09-15T16:05:48.014Z,20.06
2022-09-15T16:08:50.719Z,19.72
2022-09-15T16:11:53.487Z,19.42
2022-09-15T16:14:56.976Z,19.17
2022-09-15T16:18:00.257Z,19.19
2022-09-15T16:21:02.922Z,19.38
2022-09-15T16:24:06.581Z,19.42
2022-09-15T16:27:12.980Z,19.40
2022-09-15T16:30:15.666Z,19.09
2022-09-15T16:33:18.976Z,18.74
2022-09-15T16:36:21.667Z,18.44
2022-09-15T16:39:24.264Z,18.13
2022-09-15T16:42:27.116Z,17.85
2022-09-15T16:45:35.136Z,17.64
2022-09-15T16:48:42.589Z,17.37
2022-09-15T16:51:46.223Z,17.18
2022-09-15T16:54:49.225Z,16.97
2022-09-15T16:57:52.235Z,16.78
2022-09-15T17:00:55.547Z,16.62
2022-09-15T17:03:58.809Z,16.39
2022-09-15T17:07:01.628Z,16.27
2022-09-15T17:10:05.501Z,16.07
2022-09-15T17:13:09.581Z,15.90
2022-09-15T17:16:14.907Z,15.75
2022-09-15T17:22:49.620Z,15.52
2022-09-15T17:25:58.184Z,15.41
2022-09-15T17:29:01.437Z,15.28
2022-09-15T17:35:35.730Z,15.08
2022-09-15T18:04:38.770Z,14.23
2022-09-15T18:07:41.561Z,14.15
2022-09-15T18:10:47.243Z,14.13
2022-09-15T18:13:49.820Z,14.42
2022-09-15T18:16:52.489Z,15.90
2022-09-15T18:19:55.232Z,16.97
2022-09-15T18:22:58.475Z,17.54
2022-09-15T18:26:06.911Z,17.04
2022-09-15T18:29:12.039Z,16.27
2022-09-15T18:32:15.394Z,15.90
2022-09-15T18:35:19.086Z,15.63
2022-09-15T18:38:22.358Z,15.42
2022-09-15T18:41:27.294Z,15.28
2022-09-15T18:44:31.141Z,15.18
2022-09-15T18:47:33.913Z,15.08
2022-09-15T18:50:37.027Z,15.00
2022-09-15T18:53:39.715Z,14.97
2022-09-15T18:56:42.614Z,16.11
2022-09-15T18:59:46.652Z,16.76
2022-09-15T19:02:49.593Z,16.25
2022-09-15T19:05:52.395Z,15.72
2022-09-15T19:08:55.486Z,15.77
2022-09-15T19:11:58.192Z,16.54
2022-09-15T19:15:00.883Z,17.13
2022-09-15T19:18:03.693Z,16.96
2022-09-15T19:21:07.646Z,16.13
2022-09-15T19:24:10.259Z,15.70
2022-09-15T19:27:12.931Z,15.41
2022-09-15T19:30:18.547Z,15.14
2022-09-15T19:33:21.297Z,16.27
2022-09-15T19:36:28.336Z,17.25
2022-09-15T19:39:32.040Z,17.28
2022-09-15T19:42:34.708Z,16.30
2022-09-15T19:45:41.629Z,15.76
2022-09-15T19:48:49.370Z,16.56
2022-09-15T19:51:55.062Z,16.97
2022-09-15T19:54:57.917Z,16.24
2022-09-15T19:58:00.941Z,15.51
2022-09-15T20:01:03.806Z,16.19
2022-09-15T20:07:27.742Z,16.93
2022-09-15T20:10:30.748Z,15.79
2022-09-15T20:13:38.510Z,15.84
2022-09-15T20:16:41.429Z,16.52
2022-09-15T20:19:44.328Z,16.90
2022-09-15T20:22:46.868Z,16.99
2022-09-15T20:25:56.436Z,16.24
2022-09-15T20:29:00.973Z,15.45
2022-09-15T20:32:05.009Z,15.92
2022-09-15T20:35:08.132Z,16.85
2022-09-15T20:38:10.963Z,16.72
2022-09-15T20:41:15.005Z,15.69
2022-09-15T20:44:17.894Z,15.73
2022-09-15T20:47:20.733Z,16.38
2022-09-15T20:50:23.312Z,17.15
2022-09-15T20:53:26.139Z,16.97
2022-09-15T20:56:30.228Z,16.00
2022-09-15T20:59:32.915Z,15.37
2022-09-15T21:02:35.748Z,16.21
2022-09-15T21:05:38.596Z,16.58
2022-09-15T21:08:41.681Z,16.99
2022-09-15T21:11:44.499Z,16.44
2022-09-15T21:14:47.171Z,15.44
2022-09-15T21:17:49.779Z,15.39
2022-09-15T21:20:56.295Z,15.97
2022-09-15T21:24:01.231Z,16.19
2022-09-15T21:27:28.119Z,16.69
2022-09-15T21:30:32.149Z,17.14
2022-09-15T21:33:35.393Z,16.62
2022-09-15T21:36:38.880Z,15.77
2022-09-15T21:39:41.726Z,16.23
2022-09-15T21:42:44.551Z,16.41
2022-09-15T21:45:47.415Z,16.72
2022-09-15T21:48:50.156Z,16.92
2022-09-15T21:51:52.989Z,16.31
2022-09-15T21:54:55.631Z,15.45
2022-09-15T21:57:58.478Z,15.87
2022-09-15T22:01:09.432Z,15.87
2022-09-15T22:04:12.144Z,15.97
2022-09-15T22:07:18.508Z,16.11
2022-09-15T22:10:21.332Z,16.04
2022-09-15T22:13:25.341Z,15.98
2022-09-15T22:16:28.085Z,15.77
2022-09-15T22:19:30.863Z,16.06
2022-09-15T22:22:33.588Z,16.39
2022-09-15T22:25:36.370Z,16.42
2022-09-15T22:28:39.860Z,16.60
2022-09-15T22:31:42.649Z,16.32
2022-09-15T22:34:45.505Z,15.58
2022-09-15T22:37:48.294Z,14.73
2022-09-15T22:40:51.225Z,15.21
2022-09-15T22:43:53.913Z,15.48
2022-09-15T22:46:56.635Z,15.77
2022-09-15T22:49:59.273Z,15.30
2022-09-15T22:53:01.994Z,15.46
2022-09-15T22:56:06.061Z,15.39
2022-09-15T22:59:09.037Z,15.35
2022-09-15T23:02:14.987Z,15.22
2022-09-15T23:05:17.919Z,15.15
2022-09-15T23:08:20.569Z,14.97
2022-09-15T23:11:26.433Z,15.07
2022-09-15T23:14:29.149Z,14.90
2022-09-15T23:17:31.899Z,15.11
2022-09-15T23:20:34.540Z,14.72
2022-09-15T23:23:38.487Z,14.97
2022-09-15T23:26:41.472Z,14.93
2022-09-15T23:29:46.957Z,14.99
2022-09-15T23:32:51.008Z,14.87
2022-09-15T23:35:54.690Z,14.83
2022-09-15T23:38:57.773Z,15.03
2022-09-15T23:42:03.079Z,14.70
2022-09-15T23:45:06.918Z,14.47
2022-09-15T23:48:10.017Z,14.29
2022-09-15T23:51:12.683Z,14.78
2022-09-15T23:54:15.691Z,14.76
2022-09-15T23:57:18.481Z,14.65
